createdAt,value
2022-09-02T00:00:54.179Z,1.20
2022-09-02T00:03:21.273Z,1.23
2022-09-02T00:05:48.317Z,1.20
2022-09-02T00:08:17.592Z,1.40
2022-09-02T00:10:44.674Z,1.50
2022-09-02T00:13:13.537Z,1.43
2022-09-02T00:15:40.563Z,1.30
2022-09-02T00:18:12.498Z,1.33
2022-09-02T00:20:51.066Z,1.10
2022-09-02T00:23:25.595Z,1.40
2022-09-02T00:25:56.533Z,1.30
2022-09-02T00:28:23.330Z,1.53
2022-09-02T00:30:50.975Z,1.60
2022-09-02T00:33:17.840Z,1.30
2022-09-02T00:35:44.916Z,1.33
2022-09-02T00:38:12.282Z,1.40
2022-09-02T00:40:39.722Z,1.30
2022-09-02T00:43:08.421Z,1.30
2022-09-02T00:45:40.049Z,1.20
2022-09-02T00:48:08.886Z,1.10
2022-09-02T00:50:36.316Z,1.20
2022-09-02T00:53:10.781Z,1.10
2022-09-02T00:55:41.270Z,1.23
2022-09-02T00:58:26.024Z,1.20
2022-09-02T01:00:56.727Z,1.27
2022-09-02T01:03:25.253Z,1.10
2022-09-02T01:05:54.611Z,1.40
2022-09-02T01:08:26.923Z,1.20
2022-09-02T01:10:58.931Z,1.37
2022-09-02T01:13:27.448Z,1.20
2022-09-02T01:16:15.423Z,1.10
2022-09-02T01:18:49.814Z,1.20
2022-09-02T01:21:18.124Z,1.30
2022-09-02T01:23:45.281Z,1.20
2022-09-02T01:26:12.215Z,1.30
2022-09-02T01:28:39.475Z,1.20
2022-09-02T01:31:06.499Z,1.40
2022-09-02T01:33:33.410Z,0.90
2022-09-02T01:36:05.018Z,1.33
2022-09-02T01:38:31.991Z,1.13
2022-09-02T01:40:59.063Z,1.20
2022-09-02T01:43:29.908Z,1.20
2022-09-02T01:45:57.660Z,1.30
2022-09-02T01:48:29.128Z,0.97
2022-09-02T01:50:59.146Z,1.00
2022-09-02T01:53:25.968Z,0.97
2022-09-02T01:55:52.748Z,1.00
2022-09-02T01:58:19.550Z,1.00
2022-09-02T02:00:49.164Z,1.20
2022-09-02T02:03:16.034Z,1.20
2022-09-02T02:05:43.202Z,1.20
2022-09-02T02:08:12.603Z,1.00
2022-09-02T02:10:42.898Z,1.10
2022-09-02T02:13:09.863Z,1.20
2022-09-02T02:15:42.739Z,1.03
2022-09-02T02:18:12.019Z,1.30
2022-09-02T02:20:38.749Z,1.20
2022-09-02T02:23:06.010Z,1.30
2022-09-02T02:25:33.269Z,1.13
2022-09-02T02:28:00.072Z,1.10
2022-09-02T02:30:31.781Z,1.13
2022-09-02T02:32:58.529Z,1.30
2022-09-02T02:35:25.777Z,1.20
2022-09-02T02:37:53.237Z,1.40
2022-09-02T02:40:24.603Z,1.10
2022-09-02T02:42:53.613Z,1.63
2022-09-02T02:45:23.383Z,1.30
2022-09-02T02:47:51.236Z,1.23
2022-09-02T02:50:19.339Z,1.37
2022-09-02T02:52:46.223Z,1.40
2022-09-02T02:55:15.969Z,1.20
2022-09-02T02:57:45.556Z,1.53
2022-09-02T03:00:17.328Z,1.30
2022-09-02T03:02:44.339Z,1.10
2022-09-02T03:05:12.001Z,1.30
2022-09-02T03:07:41.443Z,1.20
2022-09-02T03:10:11.523Z,1.30
2022-09-02T03:12:39.862Z,1.43
2022-09-02T03:15:07.985Z,1.60
2022-09-02T03:17:37.784Z,1.20
2022-09-02T03:20:06.213Z,1.30
2022-09-02T03:22:33.101Z,1.30
2022-09-02T03:25:02.379Z,1.33
2022-09-02T03:27:29.438Z,1.27
2022-09-02T03:29:56.953Z,1.33
2022-09-02T03:32:23.728Z,1.40
2022-09-02T03:34:55.233Z,1.57
2022-09-02T03:37:22.058Z,1.47
2022-09-02T03:39:48.925Z,1.47
2022-09-02T03:42:19.688Z,1.50
2022-09-02T03:44:51.203Z,1.60
2022-09-02T03:47:21.661Z,1.40
2022-09-02T03:49:54.926Z,1.63
2022-09-02T03:52:24.309Z,1.60
2022-09-02T03:54:53.754Z,1.23
2022-09-02T03:57:25.892Z,1.20
2022-09-02T03:59:54.992Z,1.60
2022-09-02T04:02:21.982Z,1.50
2022-09-02T04:04:48.990Z,1.80
2022-09-02T04:07:18.352Z,1.70
2022-09-02T04:09:46.780Z,1.80
2022-09-02T04:12:14.074Z,1.40
2022-09-02T04:14:42.186Z,1.50
2022-09-02T04:17:08.958Z,1.50
2022-09-02T04:19:37.745Z,1.70
2022-09-02T04:22:04.559Z,1.50
2022-09-02T04:24:33.469Z,1.60
2022-09-02T04:27:04.208Z,1.50
2022-09-02T04:29:32.045Z,1.37
2022-09-02T04:31:58.927Z,1.30
2022-09-02T04:34:25.794Z,1.57
2022-09-02T04:36:54.872Z,1.50
2022-09-02T04:39:21.652Z,1.40
2022-09-02T04:41:50.997Z,1.50
2022-09-02T04:44:19.862Z,1.50
2022-09-02T04:46:46.922Z,1.53
2022-09-02T04:49:16.125Z,1.40
2022-09-02T04:51:45.494Z,1.70
2022-09-02T04:54:14.492Z,1.50
2022-09-02T04:56:41.244Z,1.40
2022-09-02T04:59:08.113Z,1.50
2022-09-02T05:01:37.708Z,1.50
2022-09-02T05:04:10.037Z,1.60
2022-09-02T05:06:44.085Z,1.60
2022-09-02T05:09:15.886Z,1.50
2022-09-02T05:11:42.690Z,1.50
2022-09-02T05:14:09.569Z,1.40
2022-09-02T05:16:37.861Z,1.63
2022-09-02T05:19:07.556Z,1.80
2022-09-02T05:21:34.403Z,1.90
2022-09-02T05:24:03.390Z,1.60
2022-09-02T05:26:30.270Z,1.73
2022-09-02T05:29:00.692Z,1.90
2022-09-02T05:31:28.999Z,1.77
2022-09-02T05:33:55.828Z,1.70
2022-09-02T05:36:24.822Z,1.70
2022-09-02T05:38:52.084Z,1.43
2022-09-02T05:41:28.699Z,2.10
2022-09-02T05:43:57.046Z,1.77
2022-09-02T05:46:31.204Z,1.80
2022-09-02T05:49:06.590Z,1.53
2022-09-02T05:51:39.354Z,1.90
2022-09-02T05:54:06.158Z,1.93
2022-09-02T05:56:37.142Z,1.80
2022-09-02T05:59:07.754Z,1.90
2022-09-02T06:01:35.193Z,1.80
2022-09-02T06:04:02.570Z,1.83
2022-09-02T06:06:31.894Z,1.97
2022-09-02T06:09:01.203Z,1.90
2022-09-02T06:11:28.927Z,1.70
2022-09-02T06:14:00.857Z,1.80
2022-09-02T06:16:27.751Z,1.80
2022-09-02T06:18:54.620Z,1.90
2022-09-02T06:21:21.372Z,1.73
2022-09-02T06:23:48.296Z,2.00
2022-09-02T06:26:17.686Z,1.83
2022-09-02T06:28:47.214Z,1.60
2022-09-02T06:31:16.025Z,1.67
2022-09-02T06:33:43.976Z,1.67
2022-09-02T06:36:12.566Z,1.57
2022-09-02T06:38:46.100Z,1.70
2022-09-02T06:41:17.874Z,1.40
2022-09-02T06:43:44.783Z,1.43
2022-09-02T06:46:17.328Z,1.70
2022-09-02T06:48:44.505Z,1.50
2022-09-02T06:51:22.544Z,1.50
2022-09-02T06:53:53.985Z,0.90
2022-09-02T06:56:23.227Z,1.20
2022-09-02T06:58:52.507Z,1.43
2022-09-02T07:01:26.816Z,1.50
2022-09-02T07:04:12.036Z,1.50
2022-09-02T07:06:41.124Z,1.20
2022-09-02T07:09:09.026Z,1.67
2022-09-02T07:11:39.361Z,1.37
2022-09-02T07:14:08.819Z,1.57
2022-09-02T07:16:38.567Z,1.57
2022-09-02T07:19:08.750Z,1.57
2022-09-02T07:21:41.757Z,1.50
2022-09-02T07:24:09.910Z,1.60
2022-09-02T07:26:36.812Z,1.30
2022-09-02T07:29:04.426Z,1.40
2022-09-02T07:31:31.192Z,1.50
2022-09-02T07:33:59.161Z,1.73
2022-09-02T07:36:26.614Z,1.40
2022-09-02T07:38:56.343Z,1.50
2022-09-02T07:41:23.419Z,1.23
2022-09-02T07:43:53.634Z,1.13
2022-09-02T07:46:24.648Z,1.30
2022-09-02T07:48:51.560Z,1.30
2022-09-02T07:51:18.677Z,1.60
2022-09-02T07:53:45.671Z,0.97
2022-09-02T07:56:15.340Z,1.03
2022-09-02T07:58:43.130Z,1.00
2022-09-02T08:01:10.355Z,1.10
2022-09-02T08:03:40.334Z,0.80
2022-09-02T08:06:08.377Z,1.20
2022-09-02T08:08:35.143Z,1.10
2022-09-02T08:13:34.088Z,1.13
2022-09-02T08:16:01.152Z,0.70
2022-09-02T08:18:27.940Z,1.00
2022-09-02T08:20:56.898Z,0.90
2022-09-02T08:23:36.852Z,1.00
2022-09-02T08:26:05.697Z,1.00
2022-09-02T08:28:32.735Z,0.90
2022-09-02T08:30:59.709Z,1.03
2022-09-02T08:33:29.061Z,0.87
2022-09-02T08:35:57.918Z,0.70
2022-09-02T08:38:24.785Z,0.73
2022-09-02T08:40:56.173Z,0.70
2022-09-02T08:43:32.341Z,0.80
2022-09-02T08:46:01.647Z,0.70
2022-09-02T08:48:33.795Z,0.93
2022-09-02T08:51:37.251Z,0.60
2022-09-02T08:54:17.056Z,1.00
2022-09-02T08:56:46.087Z,1.00
2022-09-02T08:59:14.265Z,1.00
2022-09-02T09:02:04.958Z,1.00
2022-09-02T09:04:37.787Z,1.10
2022-09-02T09:07:16.577Z,1.10
2022-09-02T09:10:06.895Z,0.90
2022-09-02T09:12:38.127Z,1.00
2022-09-02T09:15:16.549Z,0.90
2022-09-02T09:17:45.399Z,0.87
2022-09-02T09:20:22.895Z,1.10
2022-09-02T09:22:50.413Z,0.90
2022-09-02T09:25:23.202Z,0.90
2022-09-02T09:27:54.679Z,1.00
2022-09-02T09:30:21.397Z,1.10
2022-09-02T09:32:55.783Z,0.83
2022-09-02T09:35:22.807Z,1.30
2022-09-02T09:37:53.397Z,1.00
2022-09-02T09:40:25.987Z,0.90
2022-09-02T09:42:57.464Z,0.80
2022-09-02T09:45:36.986Z,0.60
2022-09-02T09:48:28.105Z,0.80
2022-09-02T09:50:58.018Z,0.80
2022-09-02T09:53:35.035Z,0.60
2022-09-02T09:56:03.951Z,0.50
2022-09-02T09:58:32.868Z,0.60
2022-09-02T10:01:01.794Z,0.87
2022-09-02T10:03:32.878Z,0.50
2022-09-02T10:06:07.992Z,0.97
2022-09-02T10:08:34.725Z,1.20
2022-09-02T10:11:02.905Z,0.90
2022-09-02T10:13:37.045Z,0.93
2022-09-02T10:16:42.421Z,0.90
2022-09-02T10:19:46.299Z,0.80
2022-09-02T10:22:48.524Z,1.47
2022-09-02T10:25:43.137Z,1.27
2022-09-02T10:28:36.179Z,1.00
2022-09-02T10:31:16.091Z,1.10
2022-09-02T10:34:04.464Z,1.00
2022-09-02T10:37:00.689Z,1.10
2022-09-02T10:39:58.897Z,0.90
2022-09-02T10:42:46.032Z,1.00
2022-09-02T10:45:48.060Z,0.70
2022-09-02T10:48:20.750Z,0.90
2022-09-02T10:50:53.438Z,0.90
2022-09-02T10:53:33.573Z,0.80
2022-09-02T10:56:11.483Z,0.73
2022-09-02T10:58:53.330Z,1.00
2022-09-02T11:01:25.180Z,0.73
2022-09-02T11:04:10.237Z,0.60
2022-09-02T11:07:01.468Z,0.80
2022-09-02T11:09:36.900Z,0.70
2022-09-02T11:12:16.340Z,0.73
2022-09-02T11:15:04.529Z,0.50
2022-09-02T11:17:35.660Z,0.70
2022-09-02T11:20:05.847Z,0.80
2022-09-02T11:22:50.169Z,0.60
2022-09-02T11:25:29.533Z,0.63
2022-09-02T11:28:22.624Z,0.63
2022-09-02T11:33:29.224Z,0.70
2022-09-02T11:35:58.087Z,1.20
2022-09-02T11:38:40.196Z,0.70
2022-09-02T11:41:35.861Z,0.60
2022-09-02T11:44:14.627Z,0.60
2022-09-02T11:46:44.100Z,0.80
2022-09-02T11:49:29.612Z,0.80
2022-09-02T11:52:18.884Z,0.70
2022-09-02T11:54:49.257Z,0.60
2022-09-02T11:57:25.126Z,0.80
2022-09-02T11:59:51.834Z,0.73
2022-09-02T12:02:34.000Z,0.70
2022-09-02T12:05:32.321Z,0.60
2022-09-02T12:08:12.320Z,0.65
2022-09-02T12:10:48.454Z,0.70
2022-09-02T12:13:37.851Z,0.60
2022-09-02T12:16:16.745Z,0.80
2022-09-02T12:18:44.862Z,0.60
2022-09-02T12:21:23.510Z,0.60
2022-09-02T12:23:56.202Z,0.70
2022-09-02T12:26:24.640Z,0.57
2022-09-02T12:29:10.144Z,0.70
2022-09-02T12:31:45.752Z,0.70
2022-09-02T12:34:22.395Z,0.60
2022-09-02T12:37:02.519Z,0.75
2022-09-02T12:39:30.475Z,0.50
2022-09-02T12:42:06.574Z,0.70
2022-09-02T12:44:54.510Z,0.50
2022-09-02T12:47:36.570Z,0.70
2022-09-02T12:50:10.776Z,0.55
2022-09-02T12:52:42.843Z,0.75
2022-09-02T12:55:21.607Z,0.68
2022-09-02T12:57:52.547Z,0.60
2022-09-02T13:00:34.336Z,0.70
2022-09-02T13:03:24.090Z,0.50
2022-09-02T13:05:57.324Z,0.50
2022-09-02T13:08:51.070Z,0.60
2022-09-02T13:11:20.596Z,0.70
2022-09-02T13:14:13.847Z,0.50
2022-09-02T13:17:05.109Z,0.80
2022-09-02T13:20:08.686Z,0.70
2022-09-02T13:22:54.878Z,0.70
2022-09-02T13:25:41.495Z,0.77
2022-09-02T13:28:15.970Z,0.70
2022-09-02T13:31:01.657Z,0.73
2022-09-02T13:33:30.616Z,0.82
2022-09-02T13:36:00.168Z,0.80
2022-09-02T13:38:28.637Z,0.70
2022-09-02T13:40:57.606Z,0.70
2022-09-02T13:43:26.948Z,0.80
2022-09-02T13:46:00.852Z,0.57
2022-09-02T13:48:31.117Z,0.60
2022-09-02T13:51:00.175Z,0.75
2022-09-02T13:56:27.387Z,0.60
2022-09-02T13:58:57.132Z,0.52
2022-09-02T14:01:37.149Z,0.68
2022-09-02T14:04:07.245Z,0.60
2022-09-02T14:06:38.900Z,0.60
2022-09-02T14:09:08.608Z,0.65
2022-09-02T14:11:45.867Z,0.68
2022-09-02T14:14:18.808Z,1.30
2022-09-02T14:16:45.605Z,1.00
2022-09-02T14:19:23.965Z,1.00
2022-09-02T14:21:57.470Z,0.80
2022-09-02T14:24:36.496Z,0.70
2022-09-02T14:27:12.688Z,0.98
2022-09-02T14:29:48.137Z,0.80
2022-09-02T14:32:20.567Z,0.60
2022-09-02T14:34:47.913Z,0.60
2022-09-02T14:37:25.555Z,0.70
2022-09-02T14:40:13.361Z,0.60
2022-09-02T14:42:56.834Z,0.70
2022-09-02T14:45:34.462Z,0.65
2022-09-02T14:48:22.610Z,0.73
2022-09-02T14:50:49.662Z,0.77
2022-09-02T14:53:20.880Z,0.65
2022-09-02T14:55:54.949Z,0.73
2022-09-02T14:58:27.353Z,0.60
2022-09-02T15:00:58.854Z,0.63
2022-09-02T15:03:29.067Z,0.50
2022-09-02T15:05:58.815Z,0.50
2022-09-02T15:08:27.719Z,0.50
2022-09-02T15:10:54.880Z,0.70
2022-09-02T15:13:32.446Z,0.70
2022-09-02T15:15:59.602Z,0.70
2022-09-02T15:18:28.727Z,0.50
2022-09-02T15:20:57.790Z,0.70
2022-09-02T15:23:32.506Z,0.77
2022-09-02T15:26:03.759Z,0.60
2022-09-02T15:28:30.979Z,0.68
2022-09-02T15:30:59.381Z,0.73
2022-09-02T15:33:28.533Z,0.88
2022-09-02T15:36:09.532Z,0.60
2022-09-02T15:38:41.056Z,0.65
2022-09-02T15:41:31.489Z,0.68
2022-09-02T15:43:59.854Z,0.70
2022-09-02T15:46:33.920Z,1.15
2022-09-02T15:49:02.776Z,1.02
2022-09-02T15:51:29.744Z,0.90
2022-09-02T15:53:57.220Z,1.00
2022-09-02T15:56:25.316Z,0.85
2022-09-02T15:58:57.958Z,0.80
2022-09-02T16:01:26.458Z,0.75
2022-09-02T16:03:53.416Z,0.63
2022-09-02T16:06:25.737Z,0.80
2022-09-02T16:08:52.480Z,0.60
2022-09-02T16:11:21.730Z,1.02
2022-09-02T16:13:48.509Z,0.80
2022-09-02T16:16:15.494Z,0.80
2022-09-02T16:18:44.601Z,0.70
2022-09-02T16:21:12.040Z,0.83
2022-09-02T16:23:38.931Z,0.73
2022-09-02T16:26:24.380Z,0.80
2022-09-02T16:28:55.565Z,0.73
2022-09-02T16:31:22.904Z,0.70
2022-09-02T16:33:59.504Z,0.60
2022-09-02T16:36:33.068Z,0.80
2022-09-02T16:39:03.231Z,0.90
2022-09-02T16:41:29.960Z,0.70
2022-09-02T16:43:57.500Z,0.90
2022-09-02T16:46:24.947Z,1.03
2022-09-02T16:48:56.538Z,1.10
2022-09-02T16:51:25.822Z,0.90
2022-09-02T16:54:01.827Z,1.03
2022-09-02T16:56:31.235Z,0.90
2022-09-02T16:59:03.296Z,0.97
2022-09-02T17:01:32.376Z,0.98
2022-09-02T17:04:00.383Z,0.80
2022-09-02T17:06:32.254Z,1.33
2022-09-02T17:08:59.172Z,1.00
2022-09-02T17:11:30.708Z,0.90
2022-09-02T17:14:07.383Z,1.10
2022-09-02T17:16:36.093Z,1.17
2022-09-02T17:19:02.984Z,1.10
2022-09-02T17:21:34.159Z,1.10
2022-09-02T17:24:03.714Z,1.20
2022-09-02T17:26:34.613Z,1.03
2022-09-02T17:29:01.742Z,1.03
2022-09-02T17:31:31.663Z,1.10
2022-09-02T17:34:00.486Z,0.87
2022-09-02T17:36:28.978Z,1.43
2022-09-02T17:38:57.076Z,1.00
2022-09-02T17:41:43.192Z,1.10
2022-09-02T17:44:12.443Z,1.50
2022-09-02T17:46:39.234Z,1.60
2022-09-02T17:49:16.814Z,1.70
2022-09-02T17:51:47.434Z,1.50
2022-09-02T17:54:16.654Z,1.30
2022-09-02T17:57:04.997Z,1.30
2022-09-02T17:59:51.152Z,1.50
2022-09-02T18:02:29.688Z,1.13
2022-09-02T18:05:21.426Z,1.90
2022-09-02T18:08:03.297Z,1.40
2022-09-02T18:10:41.570Z,1.63
2022-09-02T18:13:15.304Z,1.67
2022-09-02T18:16:06.815Z,1.57
2022-09-02T18:18:34.734Z,1.53
2022-09-02T18:21:09.432Z,1.60
2022-09-02T18:23:41.648Z,1.80
2022-09-02T18:26:22.886Z,1.70
2022-09-02T18:28:54.984Z,1.40
2022-09-02T18:31:47.676Z,1.80
2022-09-02T18:34:30.606Z,1.97
2022-09-02T18:37:20.365Z,3.17
2022-09-02T18:40:02.485Z,2.00
2022-09-02T18:42:38.576Z,2.00
2022-09-02T18:45:43.439Z,2.20
2022-09-02T18:48:14.335Z,2.13
2022-09-02T18:50:53.526Z,1.90
2022-09-02T18:53:25.505Z,2.20
2022-09-02T18:55:54.703Z,1.80
2022-09-02T18:58:37.105Z,1.80
2022-09-02T19:01:35.461Z,2.03
2022-09-02T19:04:02.473Z,2.03
2022-09-02T19:06:36.082Z,2.03
2022-09-02T19:09:14.802Z,1.77
2022-09-02T19:11:41.693Z,1.70
2022-09-02T19:14:31.274Z,2.20
2022-09-02T19:17:02.708Z,2.13
2022-09-02T19:19:33.360Z,2.07
2022-09-02T19:22:04.802Z,2.00
2022-09-02T19:24:34.313Z,2.00
2022-09-02T19:27:09.766Z,2.10
2022-09-02T19:29:41.356Z,1.77
2022-09-02T19:32:08.354Z,2.00
2022-09-02T19:34:37.153Z,2.20
2022-09-02T19:37:05.009Z,1.63
2022-09-02T19:39:37.350Z,2.00
2022-09-02T19:42:05.415Z,1.83
2022-09-02T19:44:32.367Z,2.50
2022-09-02T19:49:45.913Z,1.90
2022-09-02T19:52:14.882Z,2.60
2022-09-02T19:54:44.401Z,2.00
2022-09-02T19:57:13.567Z,2.40
2022-09-02T19:59:40.343Z,2.60
2022-09-02T20:02:09.311Z,2.77
2022-09-02T20:04:38.757Z,2.47
2022-09-02T20:07:07.707Z,2.40
2022-09-02T20:09:34.468Z,2.73
2022-09-02T20:12:03.790Z,2.90
2022-09-02T20:14:30.558Z,2.90
2022-09-02T20:17:00.708Z,2.63
2022-09-02T20:19:29.583Z,2.87
2022-09-02T20:21:56.339Z,2.67
2022-09-02T20:24:32.366Z,2.53
2022-09-02T20:27:09.434Z,2.90
2022-09-02T20:29:52.530Z,2.90
2022-09-02T20:32:36.745Z,2.60
2022-09-02T20:35:19.352Z,3.00
2022-09-02T20:38:06.735Z,3.10
2022-09-02T20:40:52.161Z,2.87
2022-09-02T20:43:18.894Z,3.13
2022-09-02T20:46:02.023Z,2.77
2022-09-02T20:48:50.706Z,3.07
2022-09-02T20:51:35.012Z,2.83
2022-09-02T20:54:10.062Z,3.70
2022-09-02T20:56:58.160Z,3.07
2022-09-02T20:59:51.158Z,2.80
2022-09-02T21:02:24.170Z,2.90
2022-09-02T21:04:56.250Z,3.23
2022-09-02T21:07:42.762Z,3.20
2022-09-02T21:10:29.820Z,3.67
2022-09-02T21:12:59.353Z,3.23
2022-09-02T21:15:42.197Z,3.73
2022-09-02T21:18:23.954Z,3.37
2022-09-02T21:21:02.170Z,3.50
2022-09-02T21:24:04.869Z,4.23
2022-09-02T21:26:56.552Z,3.87
2022-09-02T21:29:29.040Z,3.90
2022-09-02T21:32:23.404Z,4.10
2022-09-02T21:35:17.856Z,3.93
2022-09-02T21:37:45.035Z,3.90
2022-09-02T21:40:19.841Z,3.90
2022-09-02T21:43:05.729Z,3.73
2022-09-02T21:45:52.660Z,3.53
2022-09-02T21:48:43.491Z,3.60
2022-09-02T21:51:13.396Z,3.90
2022-09-02T21:53:53.816Z,3.40
2022-09-02T21:56:29.390Z,3.27
2022-09-02T21:59:09.698Z,3.67
2022-09-02T22:01:49.127Z,3.20
2022-09-02T22:04:37.645Z,3.20
2022-09-02T22:07:23.984Z,3.60
2022-09-02T22:10:11.126Z,3.30
2022-09-02T22:12:40.366Z,3.00
2022-09-02T22:15:16.832Z,2.90
2022-09-02T22:17:56.234Z,3.30
2022-09-02T22:20:32.182Z,3.50
2022-09-02T22:23:05.286Z,3.40
2022-09-02T22:25:33.784Z,3.17
2022-09-02T22:28:21.166Z,2.77
2022-09-02T22:30:49.691Z,3.13
2022-09-02T22:33:20.255Z,2.90
2022-09-02T22:35:58.695Z,3.00
2022-09-02T22:38:38.031Z,2.87
2022-09-02T22:41:25.312Z,3.20
2022-09-02T22:43:58.858Z,3.50
2022-09-02T22:46:50.782Z,3.10
2022-09-02T22:49:38.484Z,3.20
2022-09-02T22:52:39.812Z,3.20
2022-09-02T22:55:14.491Z,3.03
2022-09-02T22:58:02.629Z,2.83
2022-09-02T23:00:29.866Z,3.20
2022-09-02T23:03:17.312Z,3.00
2022-09-02T23:05:54.490Z,2.60
2022-09-02T23:08:21.787Z,2.97
2022-09-02T23:11:28.155Z,3.00
2022-09-02T23:14:12.262Z,3.23
2022-09-02T23:17:20.497Z,2.80
2022-09-02T23:20:02.993Z,3.40
2022-09-02T23:22:42.215Z,3.27
2022-09-02T23:25:19.594Z,3.30
2022-09-02T23:28:04.708Z,3.23
2022-09-02T23:30:33.789Z,3.10
2022-09-02T23:33:10.087Z,3.00
2022-09-02T23:35:48.394Z,2.90
2022-09-02T23:38:44.261Z,2.87
2022-09-02T23:41:12.035Z,3.07
2022-09-02T23:43:42.264Z,3.07
2022-09-02T23:46:14.238Z,3.13
2022-09-02T23:48:50.880Z,2.90
2022-09-02T23:51:42.093Z,3.00
2022-09-02T23:54:25.319Z,2.90
2022-09-02T23:56:57.297Z,2.93
2022-09-02T23:59:42.664Z,3.13
